.
WxDataArchive / Data Records for 2006-01-14
2006-01-13 January 2006 2006-01-15

Data Records for Saturday, 14 January 2006

Time	Temp	Chill	HIndex	Humid	Dewpt	 Wind 	HiWind	WindDir	Rain 	Barom 
-----	----	-----	------	-----	-----	------	------	-------	-----	----- 
00:00	34.7	31.2	34.7	86	30.9	4	10	315	0.00	29.585 
00:05	34.7	34.7	34.7	86	30.9	3	11	0	0.00	29.585 
00:10	34.7	31.2	34.7	85	30.7	4	10	292	0.00	29.585 
00:15	34.6	34.6	34.6	85	30.6	3	9	315	0.00	29.587 
00:20	34.6	34.6	34.6	84	30.3	3	8	338	0.00	29.587 
00:25	34.6	31.1	34.6	83	30.0	4	12	338	0.00	29.587 
00:30	34.6	34.6	34.6	84	30.3	3	9	338	0.00	29.600 
00:35	34.6	31.1	34.6	84	30.3	4	12	338	0.00	29.600 
00:40	34.4	30.8	34.4	83	29.8	4	12	315	0.00	29.600 
00:45	34.4	34.4	34.4	84	30.1	3	13	338	0.00	29.608 
00:50	34.3	34.3	34.3	84	30.0	3	13	315	0.00	29.608 
00:55	34.1	30.5	34.1	84	29.8	4	10	338	0.00	29.608 
01:00	34.0	30.4	34.0	84	29.7	4	10	338	0.00	29.616 
01:05	33.8	30.2	33.8	84	29.5	4	11	338	0.00	29.616 
01:10	33.8	30.2	33.8	84	29.5	4	13	292	0.00	29.616 
01:15	33.7	30.0	33.7	84	29.4	4	10	338	0.00	29.626 
01:20	33.5	28.8	33.5	84	29.2	5	11	292	0.00	29.626 
01:25	33.5	28.8	33.5	83	28.9	5	17	338	0.00	29.626 
01:30	33.4	29.7	33.4	84	29.1	4	10	315	0.00	29.635 
01:35	33.1	28.4	33.1	82	28.2	5	12	292	0.00	29.635 
01:40	32.9	29.1	32.9	81	27.7	4	10	338	0.00	29.635 
01:45	32.9	29.1	32.9	80	27.4	4	12	338	0.00	29.637 
01:50	32.9	32.9	32.9	81	27.7	3	10	292	0.00	29.637 
01:55	32.8	29.0	32.8	81	27.6	4	11	338	0.00	29.637 
02:00	32.7	28.9	32.7	81	27.5	4	9	338	0.00	29.649 
02:05	32.7	32.7	32.7	81	27.5	3	11	338	0.00	29.649 
02:10	32.7	32.7	32.7	81	27.5	3	10	292	0.00	29.649 
02:15	32.7	32.7	32.7	82	27.8	3	11	315	0.00	29.656 
02:20	32.5	28.7	32.5	80	27.0	4	15	338	0.00	29.656 
02:25	32.5	28.7	32.5	79	26.7	4	11	315	0.00	29.656 
02:30	32.5	27.7	32.5	80	27.0	5	13	338	0.00	29.667 
02:35	32.4	32.4	32.4	80	26.9	3	9	338	0.00	29.667 
02:40	32.4	32.4	32.4	80	26.9	3	10	338	0.00	29.667 
02:45	32.4	32.4	32.4	80	26.9	2	7	338	0.00	29.682 
02:50	32.2	28.3	32.2	77	25.8	4	13	315	0.00	29.682 
02:55	32.1	28.2	32.1	78	26.0	4	15	315	0.00	29.682 
03:00	32.1	27.2	32.1	77	25.7	5	14	315	0.00	29.687 
03:05	32.1	28.2	32.1	77	25.7	4	9	315	0.00	29.687 
03:10	32.1	28.2	32.1	77	25.7	4	9	315	0.00	29.687 
03:15	32.1	28.2	32.1	76	25.4	4	13	315	0.00	29.697 
03:20	32.1	28.2	32.1	76	25.4	4	12	338	0.00	29.697 
03:25	31.9	28.0	31.9	75	24.9	4	12	315	0.00	29.697 
03:30	32.1	28.2	32.1	75	25.1	4	15	315	0.00	29.706 
03:35	32.1	28.2	32.1	74	24.8	4	10	315	0.00	29.706 
03:40	32.1	32.1	32.1	74	24.8	3	10	292	0.00	29.706 
03:45	32.1	27.2	32.1	74	24.8	5	11	338	0.00	29.712 
03:50	32.1	28.2	32.1	74	24.8	4	12	338	0.00	29.712 
03:55	32.1	32.1	32.1	75	25.1	3	13	338	0.00	29.712 
04:00	32.1	32.1	32.1	76	25.4	3	10	315	0.00	29.718 
04:05	31.9	31.9	31.9	75	24.9	3	9	338	0.00	29.718 
04:10	31.9	31.9	31.9	75	24.9	3	10	315	0.00	29.718 
04:15	31.9	31.9	31.9	74	24.6	3	7	338	0.00	29.725 
04:20	31.9	31.9	31.9	74	24.6	3	6	315	0.00	29.725 
04:25	31.9	31.9	31.9	74	24.6	3	11	315	0.00	29.725 
04:30	31.9	26.1	31.9	73	24.2	6	13	315	0.00	29.727 
04:35	31.9	28.0	31.9	73	24.2	4	10	315	0.00	29.727 
04:40	31.9	31.9	31.9	73	24.2	3	12	315	0.00	29.727 
04:45	31.8	27.8	31.8	70	23.2	4	13	338	0.00	29.736 
04:50	31.8	27.8	31.8	70	23.2	4	11	270	0.00	29.736 
04:55	31.8	27.8	31.8	71	23.5	4	11	338	0.00	29.736 
05:00	31.8	31.8	31.8	70	23.2	3	10	338	0.00	29.746 
05:05	31.8	27.8	31.8	69	22.8	4	12	338	0.00	29.746 
05:10	31.8	31.8	31.8	70	23.2	2	10	338	0.00	29.746 
05:15	31.6	31.6	31.6	70	23.0	3	9	0	0.00	29.754 
05:20	31.6	31.6	31.6	71	23.3	3	15	338	0.00	29.754 
05:25	31.6	27.6	31.6	70	23.0	4	10	0	0.00	29.754 
05:30	31.8	31.8	31.8	70	23.2	3	7	315	0.00	29.766 
05:35	31.8	26.8	31.8	70	23.2	5	15	292	0.00	29.766 
05:40	31.8	27.8	31.8	71	23.5	4	13	315	0.00	29.766 
05:45	31.8	31.8	31.8	72	23.8	3	5	338	0.00	29.773 
05:50	31.8	31.8	31.8	72	23.8	2	6	292	0.00	29.773 
05:55	31.8	31.8	31.8	71	23.5	3	9	338	0.00	29.773 
06:00	31.8	31.8	31.8	72	23.8	2	7	0	0.00	29.778 
06:05	31.8	31.8	31.8	71	23.5	3	10	315	0.00	29.778 
06:10	31.8	27.8	31.8	70	23.2	4	15	338	0.00	29.778 
06:15	31.8	26.8	31.8	69	22.8	5	14	22	0.00	29.786 
06:20	31.8	27.8	31.8	68	22.5	4	13	338	0.00	29.786 
06:25	31.8	27.8	31.8	69	22.8	4	11	315	0.00	29.786 
06:30	31.8	27.8	31.8	69	22.8	4	14	338	0.00	29.800 
06:35	31.8	26.8	31.8	69	22.8	5	11	315	0.00	29.800 
06:40	31.8	27.8	31.8	69	22.8	4	13	315	0.00	29.800 
06:45	31.8	31.8	31.8	68	22.5	3	11	0	0.00	29.811 
06:50	31.8	27.8	31.8	68	22.5	4	17	0	0.00	29.811 
06:55	31.8	27.8	31.8	66	21.8	4	10	315	0.00	29.811 
07:00	31.8	27.8	31.8	67	22.1	4	10	0	0.00	29.822 
07:05	31.6	31.6	31.6	68	22.3	2	6	338	0.00	29.822 
07:10	31.6	27.6	31.6	67	21.9	4	12	315	0.00	29.822 
07:15	31.6	27.6	31.6	67	21.9	4	10	315	0.00	29.833 
07:20	31.6	27.6	31.6	66	21.6	4	12	338	0.00	29.833 
07:25	31.6	26.6	31.6	65	21.2	5	17	338	0.00	29.833 
07:30	31.6	26.6	31.6	64	20.8	5	14	315	0.00	29.834 
07:35	31.6	27.6	31.6	64	20.8	4	12	270	0.00	29.834 
07:40	31.6	27.6	31.6	64	20.8	4	15	338	0.00	29.834 
07:45	31.5	27.5	31.5	64	20.7	4	11	315	0.00	29.848 
07:50	31.5	27.5	31.5	64	20.7	4	12	315	0.00	29.848 
07:55	31.3	27.3	31.3	63	20.2	4	12	338	0.00	29.848 
08:00	31.2	27.2	31.2	63	20.1	4	10	0	0.00	29.864 
08:05	31.0	31.0	31.0	64	20.3	3	7	338	0.00	29.864 
08:10	31.0	26.9	31.0	63	19.9	4	11	338	0.00	29.864 
08:15	31.0	26.9	31.0	62	19.5	4	11	0	0.00	29.878 
08:20	31.2	27.2	31.2	62	19.7	4	10	338	0.00	29.878 
08:25	31.2	27.2	31.2	62	19.7	4	12	338	0.00	29.878 
08:30	31.0	31.0	31.0	63	19.9	3	13	338	0.00	29.894 
08:35	31.0	31.0	31.0	64	20.3	2	7	338	0.00	29.894 
08:40	31.2	31.2	31.2	64	20.5	3	12	338	0.00	29.894 
08:45	31.2	31.2	31.2	64	20.5	2	7	338	0.00	29.906 
08:50	31.3	31.3	31.3	64	20.6	3	11	338	0.00	29.906 
08:55	31.5	31.5	31.5	65	21.1	3	9	292	0.00	29.906 
09:00	31.6	31.6	31.6	65	21.2	2	6	315	0.00	29.915 
09:05	31.8	31.8	31.8	65	21.4	2	7	315	0.00	29.915 
09:10	31.9	31.9	31.9	66	21.9	2	5	338	0.00	29.915 
09:15	31.9	31.9	31.9	66	21.9	3	10	338	0.00	29.923 
09:20	32.1	32.1	32.1	67	22.4	1	5	338	0.00	29.923 
09:25	32.1	32.1	32.1	68	22.7	1	4	338	0.00	29.923 
09:30	32.1	32.1	32.1	67	22.4	2	6	0	0.00	29.932 
09:35	31.9	27.0	31.9	63	20.8	5	15	292	0.00	29.932 
09:40	31.6	27.6	31.6	62	20.1	4	12	338	0.00	29.932 
09:45	31.5	31.5	31.5	62	20.0	3	7	315	0.00	29.937 
09:50	31.6	31.6	31.6	61	19.7	3	10	338	0.00	29.937 
09:55	31.6	31.6	31.6	61	19.7	3	9	0	0.00	29.937 
10:00	31.8	31.8	31.8	61	19.9	3	10	22	0.00	29.949 
10:05	31.9	31.9	31.9	61	20.0	3	10	0	0.00	29.949 
10:10	32.1	32.1	32.1	61	20.2	2	8	0	0.00	29.949 
10:15	31.9	31.9	31.9	62	20.4	3	8	292	0.00	29.951 
10:20	31.9	31.9	31.9	62	20.4	3	10	338	0.00	29.951 
10:25	31.9	31.9	31.9	62	20.4	3	7	0	0.00	29.951 
10:30	31.9	31.9	31.9	62	20.4	2	7	0	0.00	29.962 
10:35	31.9	31.9	31.9	65	21.5	2	5	338	0.00	29.962 
10:40	32.1	32.1	32.1	64	21.3	2	6	338	0.00	29.962 
10:45	32.4	32.4	32.4	65	22.0	1	3	292	0.00	29.965 
10:50	32.5	32.5	32.5	64	21.7	2	7	338	0.00	29.965 
10:55	32.2	32.2	32.2	62	20.7	3	9	338	0.00	29.965 
11:00	32.1	28.2	32.1	59	19.4	4	9	338	0.00	29.973 
11:05	31.8	27.8	31.8	60	19.5	4	9	315	0.00	29.973 
11:10	32.4	32.4	32.4	59	19.7	3	10	0	0.00	29.973 
11:15	32.8	32.8	32.8	58	19.7	3	7	338	0.00	29.975 
11:20	32.9	29.1	32.9	59	20.2	4	10	22	0.00	29.975 
11:25	32.9	29.1	32.9	59	20.2	4	10	338	0.00	29.975 
11:30	32.8	29.0	32.8	59	20.1	4	12	315	0.00	29.980 
11:35	32.8	28.0	32.8	57	19.3	5	11	315	0.00	29.980 
11:40	32.4	27.5	32.4	58	19.3	5	15	315	0.00	29.980 
11:45	32.8	32.8	32.8	59	20.1	3	10	292	0.00	29.979 
11:50	33.5	33.5	33.5	58	20.3	3	6	338	0.00	29.979 
11:55	34.1	34.1	34.1	59	21.3	3	9	338	0.00	29.979 
12:00	34.0	30.4	34.0	56	20.0	4	12	338	0.00	29.977 
12:05	34.0	34.0	34.0	57	20.4	3	10	338	0.00	29.977 
12:10	34.0	34.0	34.0	58	20.8	3	7	22	0.00	29.977 
12:15	33.8	33.8	33.8	58	20.6	3	9	315	0.00	29.975 
12:20	33.5	29.8	33.5	59	20.7	4	10	338	0.00	29.975 
12:25	33.5	33.5	33.5	60	21.1	2	9	338	0.00	29.975 
12:30	33.4	33.4	33.4	59	20.6	3	11	315	0.00	29.983 
12:35	33.2	29.5	33.2	58	20.0	4	12	315	0.00	29.983 
12:40	33.7	33.7	33.7	59	20.9	3	10	315	0.00	29.983 
12:45	33.7	30.0	33.7	58	20.5	4	11	315	0.00	29.992 
12:50	33.4	33.4	33.4	58	20.2	3	11	0	0.00	29.992 
12:55	33.7	33.7	33.7	58	20.5	3	13	338	0.00	29.992 
13:00	33.8	30.2	33.8	58	20.6	4	9	338	0.00	29.988 
13:05	34.1	34.1	34.1	58	20.9	3	10	292	0.00	29.988 
13:10	34.3	34.3	34.3	57	20.7	3	7	0	0.00	29.988 
13:15	34.4	34.4	34.4	55	19.9	3	9	0	0.00	29.978 
13:20	34.0	30.4	34.0	56	20.0	4	7	338	0.00	29.978 
13:25	34.1	30.5	34.1	57	20.5	4	10	0	0.00	29.978 
13:30	33.8	33.8	33.8	58	20.6	3	6	0	0.00	29.977 
13:35	34.0	34.0	34.0	58	20.8	2	10	338	0.00	29.977 
13:40	33.8	33.8	33.8	59	21.0	2	6	292	0.00	29.977 
13:45	33.8	33.8	33.8	59	21.0	2	7	270	0.00	29.982 
13:50	34.6	34.6	34.6	61	22.6	3	10	270	0.00	29.982 
13:55	35.0	35.0	35.0	56	20.9	3	10	292	0.00	29.982 
14:00	34.9	34.9	34.9	58	21.6	3	7	338	0.00	29.979 
14:05	34.4	34.4	34.4	54	19.5	3	7	315	0.00	29.979 
14:10	34.4	34.4	34.4	56	20.3	2	5	338	0.00	29.979 
14:15	34.4	34.4	34.4	57	20.8	2	9	0	0.00	29.990 
14:20	34.4	34.4	34.4	58	21.2	3	10	338	0.00	29.990 
14:25	34.6	34.6	34.6	58	21.4	3	9	338	0.00	29.990 
14:30	35.0	35.0	35.0	58	21.7	3	7	338	0.00	29.997 
14:35	35.3	35.3	35.3	58	22.0	2	7	338	0.00	29.997 
14:40	35.5	35.5	35.5	56	21.4	1	4	338	0.00	29.997 
14:45	35.6	35.6	35.6	55	21.0	2	10	292	0.00	30.008 
14:50	35.3	35.3	35.3	56	21.2	3	7	315	0.00	30.008 
14:55	35.3	35.3	35.3	57	21.6	3	9	338	0.00	30.008 
15:00	35.3	35.3	35.3	56	21.2	2	8	0	0.00	30.013 
15:05	35.6	35.6	35.6	55	21.0	2	9	315	0.00	30.013 
15:10	35.5	35.5	35.5	55	21.0	3	5	315	0.00	30.013 
15:15	34.9	34.9	34.9	57	21.2	2	5	270	0.00	30.023 
15:20	34.6	34.6	34.6	57	21.0	1	3	0	0.00	30.023 
15:25	34.7	34.7	34.7	58	21.5	2	5	338	0.00	30.023 
15:30	34.4	34.4	34.4	58	21.2	2	5	315	0.00	30.027 
15:35	34.3	34.3	34.3	59	21.5	2	5	315	0.00	30.027 
15:40	34.3	34.3	34.3	58	21.1	2	4	338	0.00	30.027 
15:45	34.7	34.7	34.7	59	21.9	1	3	0	0.00	30.031 
15:50	34.6	34.6	34.6	58	21.4	2	5	292	0.00	30.031 
15:55	34.4	34.4	34.4	59	21.6	1	3	315	0.00	30.031 
16:00	34.4	34.4	34.4	60	22.0	2	4	270	0.00	30.030 
16:05	34.9	34.9	34.9	59	22.0	1	4	270	0.00	30.030 
16:10	35.2	35.2	35.2	58	21.9	2	9	270	0.00	30.030 
16:15	35.3	35.3	35.3	59	22.4	1	6	338	0.00	30.043 
16:20	35.0	35.0	35.0	58	21.7	2	7	338	0.00	30.043 
16:25	34.9	34.9	34.9	58	21.6	2	7	292	0.00	30.043 
16:30	35.0	35.0	35.0	58	21.7	1	3	315	0.00	30.045 
16:35	34.6	34.6	34.6	58	21.4	2	4	338	0.00	30.045 
16:40	34.1	34.1	34.1	58	20.9	2	5	292	0.00	30.045 
16:45	33.8	33.8	33.8	60	21.4	2	3	338	0.00	30.049 
16:50	33.7	33.7	33.7	61	21.7	1	3	338	0.00	30.049 
16:55	33.7	33.7	33.7	62	22.1	1	4	270	0.00	30.049 
17:00	33.7	33.7	33.7	61	21.7	1	3	315	0.00	30.054 
17:05	33.7	33.7	33.7	61	21.7	2	5	338	0.00	30.054 
17:10	33.5	33.5	33.5	62	21.9	1	4	292	0.00	30.054 
17:15	33.4	33.4	33.4	62	21.8	2	4	292	0.00	30.062 
17:20	33.2	33.2	33.2	63	22.0	2	5	270	0.00	30.062 
17:25	33.1	33.1	33.1	63	21.9	1	5	292	0.00	30.062 
17:30	32.9	32.9	32.9	64	22.1	2	6	292	0.00	30.070 
17:35	32.7	32.7	32.7	64	21.9	1	5	315	0.00	30.070 
17:40	32.4	32.4	32.4	64	21.6	1	3	315	0.00	30.070 
17:45	32.2	32.2	32.2	65	21.8	1	4	292	0.00	30.076 
17:50	31.9	31.9	31.9	66	21.9	1	2	315	0.00	30.076 
17:55	31.8	31.8	31.8	66	21.8	2	4	270	0.00	30.076 
18:00	31.6	31.6	31.6	67	21.9	1	2	270	0.00	30.085 
18:05	31.5	31.5	31.5	68	22.2	1	2	338	0.00	30.085 
18:10	31.3	31.3	31.3	69	22.3	1	7	338	0.00	30.085 
18:15	31.2	31.2	31.2	69	22.2	1	4	315	0.00	30.089 
18:20	31.0	31.0	31.0	69	22.0	1	3	270	0.00	30.089 
18:25	31.0	31.0	31.0	69	22.0	1	4	270	0.00	30.089 
18:30	30.9	30.9	30.9	70	22.3	1	3	270	0.00	30.088 
18:35	30.7	30.7	30.7	70	22.1	1	3	292	0.00	30.088 
18:40	30.6	30.6	30.6	70	22.0	0	2	270	0.00	30.088 
18:45	30.4	30.4	30.4	71	22.1	0	2	315	0.00	30.082 
18:50	30.3	30.3	30.3	72	22.4	1	6	248	0.00	30.082 
18:55	30.1	30.1	30.1	72	22.2	1	2	315	0.00	30.082 
19:00	30.0	30.0	30.0	72	22.1	1	3	315	0.00	30.087 
19:05	30.0	30.0	30.0	72	22.1	0	2	315	0.00	30.087 
19:10	29.8	29.8	29.8	73	22.2	1	2	315	0.00	30.087 
19:15	29.7	29.7	29.7	73	22.1	1	3	292	0.00	30.092 
19:20	29.7	29.7	29.7	73	22.1	1	3	0	0.00	30.092 
19:25	29.5	29.5	29.5	73	21.9	1	3	270	0.00	30.092 
19:30	29.4	29.4	29.4	73	21.8	1	3	315	0.00	30.085 
19:35	29.4	29.4	29.4	74	22.2	0	3	315	0.00	30.085 
19:40	29.1	29.1	29.1	74	21.9	0	2	315	0.00	30.085 
19:45	29.1	29.1	29.1	74	21.9	1	4	292	0.00	30.082 
19:50	29.0	29.0	29.0	74	21.8	0	1	292	0.00	30.082 
19:55	28.8	28.8	28.8	75	21.9	0	3	270	0.00	30.082 
20:00	28.8	28.8	28.8	75	21.9	1	2	315	0.00	30.087 
20:05	28.8	28.8	28.8	75	21.9	1	3	270	0.00	30.087 
20:10	28.8	28.8	28.8	75	21.9	1	2	292	0.00	30.087 
20:15	28.7	28.7	28.7	75	21.8	0	1	338	0.00	30.096 
20:20	28.5	28.5	28.5	76	21.9	1	2	292	0.00	30.096 
20:25	28.5	28.5	28.5	76	21.9	0	2	292	0.00	30.096 
20:30	28.4	28.4	28.4	76	21.8	0	2	292	0.00	30.097 
20:35	28.4	28.4	28.4	76	21.8	1	3	292	0.00	30.097 
20:40	28.4	28.4	28.4	76	21.8	0	3	292	0.00	30.097 
20:45	28.2	28.2	28.2	77	21.9	0	2	292	0.00	30.099 
20:50	28.2	28.2	28.2	76	21.6	0	3	292	0.00	30.099 
20:55	28.1	28.1	28.1	77	21.8	1	3	292	0.00	30.099 
21:00	28.1	28.1	28.1	77	21.8	0	2	292	0.00	30.100 
21:05	28.1	28.1	28.1	77	21.8	0	3	292	0.00	30.100 
21:10	27.9	27.9	27.9	77	21.6	0	1	292	0.00	30.100 
21:15	27.8	27.8	27.8	78	21.8	0	2	292	0.00	30.103 
21:20	27.6	27.6	27.6	78	21.7	0	2	292	0.00	30.103 
21:25	27.5	27.5	27.5	78	21.6	0	1	292	0.00	30.103 
21:30	27.3	27.3	27.3	79	21.7	0	2	292	0.00	30.103 
21:35	27.3	27.3	27.3	79	21.7	0	1	292	0.00	30.103 
21:40	27.2	27.2	27.2	79	21.6	0	1	292	0.00	30.103 
21:45	27.2	27.2	27.2	79	21.6	0	1	292	0.00	30.110 
21:50	27.0	27.0	27.0	80	21.7	0	1	292	0.00	30.110 
21:55	26.9	26.9	26.9	80	21.6	0	1	292	0.00	30.110 
22:00	26.9	26.9	26.9	80	21.6	0	1	292	0.00	30.106 
22:05	26.7	26.7	26.7	80	21.4	0	1	292	0.00	30.106 
22:10	26.7	26.7	26.7	80	21.4	0	2	292	0.00	30.106 
22:15	26.7	26.7	26.7	80	21.4	0	1	292	0.00	30.103 
22:20	26.7	26.7	26.7	80	21.4	0	1	292	0.00	30.103 
22:25	26.7	26.7	26.7	80	21.4	0	1	292	0.00	30.103 
22:30	26.6	26.6	26.6	80	21.3	0	1	292	0.00	30.110 
22:35	26.6	26.6	26.6	80	21.3	0	1	292	0.00	30.110 
22:40	26.6	26.6	26.6	80	21.3	0	2	292	0.00	30.110 
22:45	26.6	26.6	26.6	80	21.3	0	1	292	0.00	30.112 
22:50	26.4	26.4	26.4	80	21.1	0	1	292	0.00	30.112 
22:55	26.4	26.4	26.4	80	21.1	0	1	292	0.00	30.112 
23:00	26.4	26.4	26.4	80	21.1	0	1	292	0.00	30.112 
23:05	26.4	26.4	26.4	80	21.1	0	1	292	0.00	30.112 
23:10	26.3	26.3	26.3	81	21.3	0	1	292	0.00	30.112 
23:15	26.3	26.3	26.3	81	21.3	0	1	292	0.00	30.101 
23:20	26.1	26.1	26.1	81	21.1	0	3	292	0.00	30.101 
23:25	26.0	26.0	26.0	81	21.0	0	0	---	0.00	30.101 
23:30	25.8	25.8	25.8	81	20.8	0	0	---	0.00	30.093 
23:35	25.7	25.7	25.7	81	20.7	0	0	---	0.00	30.093 
23:40	25.4	25.4	25.4	81	20.4	0	0	---	0.00	30.093 
23:45	25.3	25.3	25.3	82	20.6	0	0	---	0.00	30.098 
23:50	25.1	25.1	25.1	82	20.4	0	0	---	0.00	30.098 
23:55	25.0	25.0	25.0	83	20.6	0	0	---	0.00	30.098 

CoCoRaHS
IN-AL-39
A2 Web Hosting
Creative Commons License
GoDaddy
Look for:

loaded 2017-12-13 02:27:28 • last modified 2010-11-18 10:43:29
Privacy PolicyDisclaimer
• wx.awcolley.com is powered by PmWiki v.2002016 •
• all content (unless otherwise noted) © 2017 A W Colley